createdAt,value
2018-11-06T00:04:01.317Z,10.21
2018-11-06T00:09:04.162Z,10.26
2018-11-06T00:14:06.316Z,10.17
2018-11-06T00:19:08.416Z,9.97
2018-11-06T00:24:10.556Z,10.01
2018-11-06T00:29:12.722Z,9.98
2018-11-06T00:34:14.920Z,10.02
2018-11-06T00:39:16.943Z,9.94
2018-11-06T00:44:19.071Z,9.86
2018-11-06T00:49:21.195Z,9.82
2018-11-06T00:54:23.319Z,9.75
2018-11-06T00:59:25.426Z,9.80
2018-11-06T01:04:27.514Z,9.74
2018-11-06T01:09:29.629Z,9.75
2018-11-06T01:14:31.772Z,9.71
2018-11-06T01:19:33.922Z,9.64
2018-11-06T01:24:36.017Z,9.59
2018-11-06T01:29:38.120Z,9.55
2018-11-06T01:34:40.263Z,9.62
2018-11-06T01:39:42.366Z,9.64
2018-11-06T01:44:44.493Z,9.69
2018-11-06T01:49:46.623Z,9.59
2018-11-06T01:54:48.754Z,9.58
2018-11-06T01:59:50.873Z,9.55
2018-11-06T02:04:52.995Z,9.65
2018-11-06T02:09:55.086Z,9.53
2018-11-06T02:14:57.206Z,9.56
2018-11-06T02:19:59.526Z,9.55
2018-11-06T02:25:01.671Z,9.42
2018-11-06T02:30:04.723Z,9.37
2018-11-06T02:35:07.135Z,9.47
2018-11-06T02:40:11.006Z,9.46
2018-11-06T02:45:13.547Z,9.51
2018-11-06T02:50:15.679Z,9.50
2018-11-06T02:55:17.802Z,9.50
2018-11-06T03:00:19.929Z,9.47
2018-11-06T03:05:22.014Z,9.30
2018-11-06T03:10:24.195Z,9.28
2018-11-06T03:15:26.285Z,9.31
2018-11-06T03:20:28.426Z,9.19
2018-11-06T03:25:30.555Z,9.31
2018-11-06T03:30:32.697Z,9.22
2018-11-06T03:35:34.779Z,9.29
2018-11-06T03:40:36.894Z,9.20
2018-11-06T03:45:39.021Z,9.20
2018-11-06T03:50:41.139Z,9.19
2018-11-06T03:55:43.231Z,9.14
2018-11-06T04:00:45.353Z,9.16
2018-11-06T04:05:47.455Z,9.18
2018-11-06T04:10:49.547Z,9.10
2018-11-06T04:15:51.666Z,9.07
2018-11-06T04:20:53.778Z,9.30
2018-11-06T04:25:55.886Z,9.39
2018-11-06T04:30:58.090Z,9.32
2018-11-06T04:36:00.191Z,9.41
2018-11-06T04:41:02.318Z,9.07
2018-11-06T04:46:04.746Z,9.03
2018-11-06T04:51:06.868Z,8.97
2018-11-06T04:56:08.984Z,9.25
2018-11-06T05:01:11.116Z,9.08
2018-11-06T05:06:13.690Z,8.73
2018-11-06T05:11:15.810Z,9.10
2018-11-06T05:16:17.976Z,8.68
2018-11-06T05:21:20.076Z,8.83
2018-11-06T05:26:22.236Z,8.75
2018-11-06T05:31:24.354Z,8.62
2018-11-06T05:36:26.494Z,8.53
2018-11-06T05:41:28.640Z,8.33
2018-11-06T05:46:30.763Z,8.56
2018-11-06T05:51:32.865Z,8.83
2018-11-06T05:56:34.994Z,8.90
2018-11-06T06:01:37.105Z,9.03
2018-11-06T06:06:39.214Z,8.80
2018-11-06T06:11:41.360Z,8.74
2018-11-06T06:16:43.505Z,8.35
2018-11-06T06:21:45.698Z,8.64
2018-11-06T06:26:47.841Z,8.56
2018-11-06T06:31:49.942Z,8.29
2018-11-06T06:36:52.058Z,8.32
2018-11-06T06:41:54.204Z,8.15
2018-11-06T06:46:56.311Z,8.12
2018-11-06T06:51:58.418Z,7.89
2018-11-06T06:57:00.506Z,7.98
2018-11-06T07:02:02.630Z,8.01
2018-11-06T07:07:04.951Z,8.01
2018-11-06T07:12:07.070Z,8.21
2018-11-06T07:17:09.429Z,8.55
2018-11-06T07:22:11.545Z,8.57
2018-11-06T07:27:13.796Z,8.60
2018-11-06T07:32:15.885Z,8.78
2018-11-06T07:37:17.990Z,8.71
2018-11-06T07:42:20.101Z,8.64
2018-11-06T07:47:22.249Z,8.70
2018-11-06T07:52:24.418Z,8.35
2018-11-06T07:57:26.541Z,8.23
2018-11-06T08:02:28.690Z,8.51
2018-11-06T08:07:30.784Z,8.34
2018-11-06T08:12:32.917Z,8.31
2018-11-06T08:17:36.179Z,8.11
2018-11-06T08:22:38.772Z,7.94
2018-11-06T08:27:41.810Z,7.98
2018-11-06T08:32:44.271Z,7.99
2018-11-06T08:37:46.105Z,8.17
2018-11-06T08:42:48.255Z,8.27
2018-11-06T08:47:50.362Z,8.33
2018-11-06T08:52:52.479Z,8.25
2018-11-06T08:57:54.618Z,8.40
2018-11-06T09:02:56.766Z,8.67
2018-11-06T09:07:58.887Z,8.47
2018-11-06T09:13:01.019Z,8.56
2018-11-06T09:18:03.167Z,8.72
2018-11-06T09:23:05.292Z,8.60
2018-11-06T09:28:07.375Z,8.85
2018-11-06T09:33:09.477Z,9.08
2018-11-06T09:38:11.604Z,8.81
2018-11-06T09:43:13.753Z,8.70
2018-11-06T09:48:15.859Z,8.95
2018-11-06T09:53:18.044Z,9.35
2018-11-06T09:58:20.184Z,9.20
2018-11-06T10:03:22.278Z,9.02
2018-11-06T10:08:24.559Z,9.26
2018-11-06T10:13:26.709Z,9.01
2018-11-06T10:18:28.870Z,9.11
2018-11-06T10:23:30.984Z,9.20
2018-11-06T10:28:33.154Z,9.54
2018-11-06T10:33:35.293Z,9.45
2018-11-06T10:38:37.428Z,9.65
2018-11-06T10:43:39.595Z,9.52
2018-11-06T10:48:41.695Z,9.20
2018-11-06T10:53:43.813Z,9.22
2018-11-06T10:58:45.933Z,9.22
2018-11-06T11:03:53.783Z,9.37
2018-11-06T11:08:55.907Z,9.46
2018-11-06T11:13:57.994Z,9.20
2018-11-06T11:19:00.278Z,9.45
2018-11-06T11:24:02.444Z,9.47
2018-11-06T11:29:04.739Z,9.55
2018-11-06T11:34:06.906Z,9.28
2018-11-06T11:39:09.345Z,9.34
2018-11-06T11:44:11.495Z,9.45
2018-11-06T11:49:13.610Z,9.58
2018-11-06T11:54:15.713Z,9.69
2018-11-06T11:59:17.890Z,9.89
2018-11-06T12:04:20.010Z,10.22
2018-11-06T12:09:22.128Z,10.55
2018-11-06T12:14:24.263Z,10.57
2018-11-06T12:19:26.463Z,10.69
2018-11-06T12:24:28.684Z,10.72
2018-11-06T12:29:30.761Z,10.39
2018-11-06T12:34:33.092Z,10.41
2018-11-06T12:39:35.215Z,10.61
2018-11-06T12:44:37.356Z,10.49
2018-11-06T12:49:39.478Z,10.84
2018-11-06T12:54:41.622Z,10.53
2018-11-06T12:59:43.927Z,10.63
2018-11-06T13:04:46.080Z,11.00
2018-11-06T13:09:48.233Z,10.91
2018-11-06T13:14:50.343Z,10.97
2018-11-06T13:19:52.508Z,11.16
2018-11-06T13:24:54.623Z,11.18
2018-11-06T13:29:56.770Z,11.30
2018-11-06T13:34:58.932Z,11.55
2018-11-06T13:40:01.030Z,11.27
2018-11-06T13:45:03.714Z,11.39
2018-11-06T13:50:06.210Z,11.62
2018-11-06T13:55:09.591Z,11.69
2018-11-06T14:00:14.242Z,11.75
2018-11-06T14:05:16.546Z,11.93
2018-11-06T14:10:18.690Z,11.88
2018-11-06T14:15:20.819Z,11.41
2018-11-06T14:20:22.942Z,11.27
2018-11-06T14:25:25.082Z,11.00
2018-11-06T14:30:27.220Z,10.98
2018-11-06T14:35:29.343Z,10.97
2018-11-06T14:40:31.463Z,11.02
2018-11-06T14:45:33.609Z,10.95
2018-11-06T14:50:35.737Z,10.89
2018-11-06T14:55:38.014Z,10.59
2018-11-06T15:00:40.265Z,10.31
2018-11-06T15:05:42.472Z,10.43
2018-11-06T15:10:44.553Z,10.57
2018-11-06T15:15:46.698Z,10.52
2018-11-06T15:20:48.900Z,10.34
2018-11-06T15:25:51.003Z,10.36
2018-11-06T15:30:53.127Z,10.21
2018-11-06T15:35:55.248Z,10.30
2018-11-06T15:40:57.423Z,10.40
2018-11-06T15:45:59.566Z,10.47
2018-11-06T15:51:01.744Z,10.49
2018-11-06T15:56:04.008Z,10.36
2018-11-06T16:01:06.208Z,10.19
2018-11-06T16:06:08.345Z,10.14
2018-11-06T16:11:10.531Z,10.14
2018-11-06T16:16:12.687Z,10.17
2018-11-06T16:21:14.871Z,10.30
2018-11-06T16:26:17.056Z,10.25
2018-11-06T16:31:19.237Z,10.31
2018-11-06T16:36:21.464Z,10.45
2018-11-06T16:41:23.644Z,10.46
2018-11-06T16:46:25.773Z,10.48
2018-11-06T16:51:27.932Z,10.44
2018-11-06T16:56:30.126Z,10.47
2018-11-06T17:01:32.298Z,10.49
2018-11-06T17:06:34.513Z,10.50
2018-11-06T17:11:36.881Z,10.15
2018-11-06T17:16:39.030Z,10.22
2018-11-06T17:21:41.364Z,10.27
2018-11-06T17:26:43.507Z,10.31
2018-11-06T17:31:45.681Z,10.29
2018-11-06T17:36:47.839Z,10.23
2018-11-06T17:41:50.036Z,10.20
2018-11-06T17:46:52.207Z,9.97
2018-11-06T17:51:54.544Z,10.02
2018-11-06T17:56:56.738Z,10.11
2018-11-06T18:01:58.992Z,10.17
2018-11-06T18:07:01.168Z,10.22
2018-11-06T18:12:03.368Z,10.17
2018-11-06T18:17:05.672Z,10.13
2018-11-06T18:22:07.888Z,10.07
2018-11-06T18:27:11.066Z,10.07
2018-11-06T18:32:14.737Z,10.01
2018-11-06T18:37:17.082Z,10.02
2018-11-06T18:42:19.289Z,9.92
2018-11-06T18:47:21.465Z,9.89
2018-11-06T18:52:23.661Z,9.86
2018-11-06T18:57:26.153Z,9.86
2018-11-06T19:02:28.612Z,10.22
2018-11-06T19:07:30.838Z,10.02
2018-11-06T19:12:33.491Z,9.94
2018-11-06T19:17:35.745Z,9.93
2018-11-06T19:22:38.566Z,9.88
2018-11-06T19:27:40.837Z,9.81
2018-11-06T19:32:43.398Z,9.81
2018-11-06T19:37:46.180Z,9.74
2018-11-06T19:42:49.155Z,9.82
2018-11-06T19:47:52.218Z,9.77
2018-11-06T19:52:55.869Z,9.72
2018-11-06T19:57:59.044Z,9.72
2018-11-06T20:03:03.195Z,9.81
2018-11-06T20:08:06.925Z,9.84
2018-11-06T20:13:09.506Z,9.91
2018-11-06T20:18:12.651Z,9.84
2018-11-06T20:23:15.229Z,9.82
2018-11-06T20:28:19.887Z,9.82
2018-11-06T20:33:23.391Z,9.79
2018-11-06T20:38:26.843Z,9.80
2018-11-06T20:43:29.699Z,9.82
2018-11-06T20:48:32.381Z,9.91
2018-11-06T20:53:34.986Z,9.92
2018-11-06T20:58:37.627Z,9.96
2018-11-06T21:03:40.856Z,9.89
2018-11-06T21:08:44.674Z,9.87
2018-11-06T21:13:47.601Z,9.89
2018-11-06T21:18:50.173Z,9.79
2018-11-06T21:23:55.259Z,9.68
2018-11-06T21:28:58.182Z,9.69
2018-11-06T21:34:00.923Z,9.69
2018-11-06T21:39:05.239Z,9.63
2018-11-06T21:44:07.554Z,9.70
2018-11-06T21:49:09.812Z,9.75
2018-11-06T21:54:11.964Z,9.74
2018-11-06T21:59:14.153Z,9.74
2018-11-06T22:04:16.299Z,9.77
2018-11-06T22:09:18.478Z,9.81
2018-11-06T22:14:20.616Z,9.72
2018-11-06T22:19:23.369Z,9.78
2018-11-06T22:24:25.542Z,9.78
2018-11-06T22:29:27.664Z,9.80
2018-11-06T22:34:29.828Z,9.99
2018-11-06T22:39:31.975Z,9.93
2018-11-06T22:44:34.091Z,9.88
2018-11-06T22:49:36.222Z,9.84
2018-11-06T22:54:38.355Z,9.80
2018-11-06T22:59:40.486Z,9.84
2018-11-06T23:04:42.712Z,9.69
2018-11-06T23:09:44.891Z,9.70
2018-11-06T23:14:47.074Z,9.75
2018-11-06T23:19:49.235Z,9.71
2018-11-06T23:24:51.424Z,9.66
2018-11-06T23:29:53.511Z,9.66
2018-11-06T23:34:55.640Z,9.63
2018-11-06T23:39:57.768Z,9.55
2018-11-06T23:45:00.064Z,9.63
2018-11-06T23:50:02.570Z,9.52
2018-11-06T23:55:05.038Z,9.66
